Time;durP1;ratioP1;P1;durP2;ratioP2;P2;SDS_P1;SDS_P2;PMS_P1;PMS_P2;Temp;Humidity;BMP_temperature;BMP_pressure;BME280_temperature;BME280_humidity;BME280_pressure;Samples;Min_cycle;Max_cycle;Signal;HPM_P1;HPM_P2
2021/06/13 00:01:03;;;;;;;8.90;5.20;;;;;;;15.86;55.19;101867.09;5058650;28;20494;-75
2021/06/13 00:03:28;;;;;;;9.30;5.27;;;;;;;15.63;55.39;101875.72;5059574;28;20186;-75
2021/06/13 00:05:53;;;;;;;11.20;5.20;;;;;;;15.98;54.87;101869.81;5060129;28;20235;-77
2021/06/13 00:08:19;;;;;;;7.60;5.20;;;;;;;15.97;55.09;101870.69;5059527;28;20196;-78
2021/06/13 00:10:44;;;;;;;9.83;4.97;;;;;;;15.52;55.98;101870.38;5059248;28;20209;-77
2021/06/13 00:13:11;;;;;;;8.80;5.23;;;;;;;15.42;56.89;101872.03;5059326;28;20174;-78
2021/06/13 00:15:37;;;;;;;11.47;5.30;;;;;;;15.69;56.65;101874.88;5058904;28;20184;-78
2021/06/13 00:18:02;;;;;;;10.90;4.90;;;;;;;15.72;56.23;101878.41;5058869;28;20391;-77
2021/06/13 00:20:29;;;;;;;9.57;5.40;;;;;;;15.74;56.12;101884.53;5059086;28;20170;-76
2021/06/13 00:22:54;;;;;;;10.87;5.40;;;;;;;15.96;55.39;101871.56;5058645;28;20219;-77
2021/06/13 00:25:20;;;;;;;10.30;6.23;;;;;;;15.80;55.77;101889.88;5058442;28;20535;-76
2021/06/13 00:27:45;;;;;;;9.13;5.30;;;;;;;15.49;56.88;101884.38;5058492;28;20247;-77
2021/06/13 00:30:11;;;;;;;10.60;6.00;;;;;;;15.48;57.04;101892.25;5058413;28;20241;-75
2021/06/13 00:32:37;;;;;;;10.97;6.77;;;;;;;15.41;57.53;101890.41;5058268;28;20170;-77
2021/06/13 00:35:03;;;;;;;11.07;6.10;;;;;;;15.34;57.62;101889.47;5058958;28;20580;-76
2021/06/13 00:37:30;;;;;;;8.63;5.60;;;;;;;15.36;57.65;101893.03;5058158;28;20428;-76
2021/06/13 00:39:55;;;;;;;11.83;6.40;;;;;;;15.03;58.22;101893.59;5058338;28;20390;-75
2021/06/13 00:42:21;;;;;;;14.83;8.00;;;;;;;15.26;57.59;101893.78;5058622;28;20502;-76
2021/06/13 00:44:47;;;;;;;9.80;5.80;;;;;;;15.33;57.65;101896.50;5058176;28;20174;-75
2021/06/13 00:47:12;;;;;;;12.90;5.80;;;;;;;15.09;57.38;101897.16;5058221;28;20676;-75
2021/06/13 00:49:37;;;;;;;11.80;6.87;;;;;;;15.55;57.17;101903.69;5058703;28;20200;-74
2021/06/13 00:52:03;;;;;;;10.97;6.80;;;;;;;15.15;57.92;101894.59;5058077;28;20500;-75
2021/06/13 00:54:28;;;;;;;10.00;5.30;;;;;;;15.21;57.74;101896.41;5058159;28;20543;-75
2021/06/13 00:56:54;;;;;;;10.40;6.33;;;;;;;15.41;57.14;101899.19;5058675;28;20185;-76
2021/06/13 00:59:20;;;;;;;10.17;5.80;;;;;;;15.60;56.66;101892.34;5058039;28;20185;-76
2021/06/13 01:01:45;;;;;;;12.30;5.83;;;;;;;15.35;56.87;101904.38;5057854;28;20447;-76
2021/06/13 01:04:10;;;;;;;11.97;7.30;;;;;;;15.28;57.44;101895.56;5058880;28;20252;-76
2021/06/13 01:06:56;;;;;;;11.97;5.27;;;;;;;15.30;57.31;101899.09;5058018;28;20173;-76
2021/06/13 01:09:24;;;;;;;10.43;5.60;;;;;;;15.59;56.28;101894.97;5058096;28;20508;-76
2021/06/13 01:12:02;;;;;;;10.80;5.47;;;;;;;15.74;56.08;101897.69;5057699;28;20773;-75
2021/06/13 01:14:42;;;;;;;8.27;5.50;;;;;;;15.40;56.62;101902.69;5057797;28;20393;-75
2021/06/13 01:17:17;;;;;;;8.63;5.70;;;;;;;15.23;57.48;101899.91;5057892;28;20386;-76
2021/06/13 01:19:52;;;;;;;7.53;5.77;;;;;;;15.49;56.48;101902.75;5057314;28;20398;-77
2021/06/13 01:22:55;;;;;;;9.33;6.00;;;;;;;15.71;55.87;101899.41;5056870;28;20391;-75
2021/06/13 01:25:48;;;;;;;10.10;5.87;;;;;;;15.95;55.41;101906.59;5057862;28;20440;-77
2021/06/13 01:28:41;;;;;;;10.40;6.63;;;;;;;15.62;55.93;101895.84;5057664;28;20396;-77
2021/06/13 01:31:07;;;;;;;7.97;5.60;;;;;;;15.69;55.98;101895.91;5057843;28;20430;-77
2021/06/13 01:33:33;;;;;;;10.87;5.43;;;;;;;15.37;56.73;101900.03;5057729;28;20399;-76
2021/06/13 01:36:01;;;;;;;7.43;5.70;;;;;;;15.54;56.63;101901.91;5057028;28;20412;-76
2021/06/13 01:38:27;;;;;;;10.70;5.40;;;;;;;15.36;56.98;101898.28;5058408;28;20404;-77
2021/06/13 01:40:53;;;;;;;11.90;6.27;;;;;;;15.31;57.35;101911.34;5061073;28;20538;-76
2021/06/13 01:43:22;;;;;;;10.20;5.90;;;;;;;15.41;57.37;101907.09;5060895;28;20320;-75
2021/06/13 01:45:48;;;;;;;11.57;5.90;;;;;;;15.29;57.97;101915.72;5061638;28;20390;-76
2021/06/13 01:48:14;;;;;;;10.10;5.83;;;;;;;15.24;58.03;101913.94;5061715;28;20386;-76
2021/06/13 01:50:40;;;;;;;11.00;6.33;;;;;;;15.03;58.86;101904.97;5060900;28;20465;-77
2021/06/13 01:53:08;;;;;;;10.70;5.80;;;;;;;14.97;58.71;101910.16;5061970;28;20185;-77
2021/06/13 01:55:34;;;;;;;14.30;6.63;;;;;;;14.98;58.71;101914.56;5061490;28;20186;-77
2021/06/13 01:58:01;;;;;;;9.90;5.63;;;;;;;14.97;58.51;101916.28;5060819;28;20466;-77
2021/06/13 02:00:27;;;;;;;8.97;5.43;;;;;;;14.75;59.07;101917.81;5061005;28;20192;-77
2021/06/13 02:02:53;;;;;;;12.50;6.00;;;;;;;14.80;59.55;101924.00;5060628;28;20427;-77
2021/06/13 02:05:21;;;;;;;15.80;6.60;;;;;;;14.85;59.51;101925.78;5060599;28;20400;-76
2021/06/13 02:07:47;;;;;;;9.10;5.77;;;;;;;14.81;58.93;101928.38;5061011;28;20419;-76
2021/06/13 02:10:18;;;;;;;9.30;6.40;;;;;;;14.74;59.51;101926.53;5061254;28;20438;-76
2021/06/13 02:12:44;;;;;;;13.77;6.00;;;;;;;14.79;59.57;101924.00;5061130;28;20394;-76
2021/06/13 02:15:11;;;;;;;7.90;5.67;;;;;;;15.05;58.56;101926.00;5061462;28;20470;-76
2021/06/13 02:17:37;;;;;;;11.17;6.33;;;;;;;15.04;58.34;101919.84;5061011;28;20401;-77
2021/06/13 02:20:07;;;;;;;9.27;6.10;;;;;;;15.02;58.49;101923.34;5060269;28;20421;-76
2021/06/13 02:22:33;;;;;;;11.40;6.07;;;;;;;15.15;58.13;101926.13;5061123;28;20780;-76
2021/06/13 02:24:58;;;;;;;10.87;6.37;;;;;;;15.20;57.63;101934.03;5060632;28;20471;-77
2021/06/13 02:27:26;;;;;;;10.70;5.60;;;;;;;15.02;58.28;101929.47;5061049;28;20584;-75
2021/06/13 02:29:52;;;;;;;9.00;5.70;;;;;;;15.22;56.79;101932.31;5060543;28;20197;-75
2021/06/13 02:32:17;;;;;;;7.37;5.50;;;;;;;14.74;57.96;101938.81;5060648;28;20802;-75
2021/06/13 02:34:45;;;;;;;13.20;5.90;;;;;;;15.15;57.37;101940.97;5043288;28;20166;-75
2021/06/13 02:37:10;;;;;;;10.10;6.80;;;;;;;15.31;56.33;101937.63;5060394;28;20174;-74
2021/06/13 02:39:36;;;;;;;10.87;5.50;;;;;;;15.53;55.83;101947.47;5060080;28;20417;-75
2021/06/13 02:42:01;;;;;;;10.83;7.10;;;;;;;15.24;56.60;101950.72;5060623;28;20181;-75
2021/06/13 02:44:26;;;;;;;16.37;6.00;;;;;;;15.16;57.09;101951.50;5061031;28;20180;-75
2021/06/13 02:46:52;;;;;;;8.37;5.50;;;;;;;15.31;56.35;101957.78;5060488;28;20212;-75
2021/06/13 02:49:17;;;;;;;11.33;5.83;;;;;;;15.33;56.65;101946.41;5060470;28;20216;-75
2021/06/13 02:52:06;;;;;;;11.33;6.00;;;;;;;15.00;57.67;101954.84;5060218;28;20166;-75
2021/06/13 02:54:33;;;;;;;7.37;5.80;;;;;;;14.79;58.48;101948.50;5059534;28;20174;-75
2021/06/13 02:56:59;;;;;;;14.60;5.87;;;;;;;15.18;57.55;101956.78;5059461;28;20398;-75
2021/06/13 02:59:38;;;;;;;11.40;5.23;;;;;;;15.10;57.74;101951.44;5060096;28;20386;-75
2021/06/13 03:02:09;;;;;;;12.63;6.03;;;;;;;15.44;56.98;101948.28;5059334;28;20859;-77
2021/06/13 03:04:36;;;;;;;8.30;5.60;;;;;;;15.09;58.02;101956.69;5059421;28;20448;-77
2021/06/13 03:07:01;;;;;;;10.70;5.47;;;;;;;15.38;56.91;101956.09;5059512;28;20443;-77
2021/06/13 03:09:28;;;;;;;9.33;6.27;;;;;;;15.25;57.36;101958.59;5059820;28;20408;-77
2021/06/13 03:11:54;;;;;;;10.90;5.53;;;;;;;15.43;57.02;101962.28;5059201;28;20169;-76
2021/06/13 03:14:22;;;;;;;11.23;6.10;;;;;;;15.10;57.66;101964.59;5059323;28;20408;-77
2021/06/13 03:16:48;;;;;;;9.57;5.23;;;;;;;15.16;57.46;101958.50;5060020;28;20557;-77
2021/06/13 03:19:14;;;;;;;13.47;5.83;;;;;;;15.52;56.93;101956.19;5060219;28;20412;-78
2021/06/13 03:21:40;;;;;;;9.87;6.93;;;;;;;15.45;56.51;101950.00;5059140;28;20212;-77
2021/06/13 03:24:05;;;;;;;8.67;5.57;;;;;;;15.38;56.34;101941.19;5059317;28;20387;-76
2021/06/13 03:26:31;;;;;;;10.50;5.40;;;;;;;15.59;55.84;101942.28;5059022;28;20176;-76
2021/06/13 03:28:57;;;;;;;9.07;6.40;;;;;;;15.53;55.89;101953.59;5059900;28;20436;-77
2021/06/13 03:31:23;;;;;;;9.20;5.47;;;;;;;15.53;55.67;101955.34;5058830;28;20576;-77
2021/06/13 03:33:51;;;;;;;12.17;5.43;;;;;;;15.61;55.44;101962.44;5059370;28;20394;-77
2021/06/13 03:36:17;;;;;;;9.63;5.00;;;;;;;15.31;56.48;101973.53;5059405;28;20447;-77
2021/06/13 03:38:43;;;;;;;6.80;5.00;;;;;;;15.22;56.47;101979.59;5058765;28;20436;-76
2021/06/13 03:41:09;;;;;;;9.37;5.40;;;;;;;15.58;55.38;101978.16;5059576;28;20695;-76
2021/06/13 03:43:35;;;;;;;13.50;7.07;;;;;;;15.71;54.84;101983.53;5059491;28;20481;-76
2021/06/13 03:46:00;;;;;;;8.60;5.10;;;;;;;15.26;56.56;101977.88;5058544;28;20490;-77
2021/06/13 03:48:26;;;;;;;15.20;8.00;;;;;;;15.31;56.35;101990.19;5058704;28;20213;-76
2021/06/13 03:50:52;;;;;;;9.03;5.50;;;;;;;15.32;56.38;101991.06;5042895;28;20209;-77
2021/06/13 03:53:20;;;;;;;24.33;15.77;;;;;;;15.64;55.98;101983.50;5059432;28;20172;-79
2021/06/13 03:55:45;;;;;;;13.30;10.13;;;;;;;15.50;55.90;101985.09;5059492;28;20494;-77
2021/06/13 03:58:11;;;;;;;20.47;12.70;;;;;;;15.52;55.78;101977.22;5059753;28;20403;-75
2021/06/13 04:00:37;;;;;;;8.87;5.23;;;;;;;15.53;55.92;101973.75;5059068;28;20242;-75
2021/06/13 04:03:03;;;;;;;18.27;10.67;;;;;;;15.63;55.84;101980.84;5057345;28;20188;-76
2021/06/13 04:05:28;;;;;;;13.93;7.33;;;;;;;15.55;56.08;101980.78;5059601;28;20470;-78
2021/06/13 04:07:54;;;;;;;12.60;7.40;;;;;;;15.51;56.13;101983.38;5058430;28;20473;-75
2021/06/13 04:10:21;;;;;;;12.50;5.90;;;;;;;15.49;56.05;101986.88;5058874;28;20513;-74
2021/06/13 04:12:48;;;;;;;9.17;5.43;;;;;;;15.43;56.42;101994.69;5058423;28;20386;-76
2021/06/13 04:15:14;;;;;;;11.00;5.30;;;;;;;15.26;56.79;101998.88;5058710;28;20729;-75
2021/06/13 04:17:40;;;;;;;11.40;7.20;;;;;;;15.16;57.33;102006.66;5058140;28;20715;-76
2021/06/13 04:20:06;;;;;;;11.43;6.10;;;;;;;15.37;57.09;101999.88;5058608;28;20466;-75
2021/06/13 04:22:32;;;;;;;15.10;6.87;;;;;;;15.61;56.02;101999.25;5058517;28;20176;-76
2021/06/13 04:24:59;;;;;;;11.80;5.60;;;;;;;15.85;55.65;101996.84;5057728;28;20702;-75
2021/06/13 04:27:26;;;;;;;13.30;5.70;;;;;;;16.10;54.91;101996.16;5058426;28;20554;-76
2021/06/13 04:29:51;;;;;;;9.30;6.13;;;;;;;15.81;56.00;102006.44;5058333;28;20467;-75
2021/06/13 04:32:18;;;;;;;12.93;7.27;;;;;;;15.62;56.63;102005.38;5057654;28;20397;-76
2021/06/13 04:34:43;;;;;;;9.53;5.70;;;;;;;15.67;56.23;102008.94;5058934;28;20162;-76
2021/06/13 04:37:09;;;;;;;11.20;5.80;;;;;;;16.14;54.86;102011.09;5058350;28;20427;-77
2021/06/13 04:39:36;;;;;;;10.83;5.20;;;;;;;15.81;55.87;102012.56;5058295;28;20252;-77
2021/06/13 04:42:03;;;;;;;11.87;4.87;;;;;;;16.06;55.41;102012.78;5058206;28;20642;-76
2021/06/13 04:44:28;;;;;;;10.13;5.50;;;;;;;15.65;56.28;102021.16;5057543;28;20387;-77
2021/06/13 04:46:54;;;;;;;9.37;5.77;;;;;;;15.38;57.34;102013.91;5058180;28;20457;-76
2021/06/13 04:49:19;;;;;;;11.17;5.90;;;;;;;15.82;56.11;102014.34;5058635;28;20605;-77
2021/06/13 04:51:46;;;;;;;9.17;5.17;;;;;;;15.65;56.65;102018.53;5057945;28;20184;-77
2021/06/13 04:54:22;;;;;;;8.30;4.70;;;;;;;15.79;56.01;102021.28;5057330;28;20173;-77
2021/06/13 04:56:54;;;;;;;10.03;5.13;;;;;;;15.92;55.81;102017.03;5058046;28;20382;-78
2021/06/13 04:59:20;;;;;;;16.50;5.50;;;;;;;15.76;55.81;102013.38;5057324;28;20394;-76
2021/06/13 05:01:45;;;;;;;13.03;6.50;;;;;;;15.72;56.16;102016.84;5057387;28;20881;-77
2021/06/13 05:04:11;;;;;;;13.33;6.40;;;;;;;16.00;55.88;102018.84;5058000;28;20211;-76
2021/06/13 05:06:41;;;;;;;10.10;5.63;;;;;;;16.10;55.29;102018.94;5057997;28;20181;-76
2021/06/13 05:09:06;;;;;;;9.23;5.30;;;;;;;16.19;54.68;102015.50;5057744;28;20173;-76
2021/06/13 05:11:32;;;;;;;10.07;5.90;;;;;;;16.29;54.48;102010.31;5057115;28;20770;-76
2021/06/13 05:13:57;;;;;;;14.47;5.50;;;;;;;16.71;53.38;102022.81;5057694;28;20177;-76
2021/06/13 05:16:22;;;;;;;10.33;5.40;;;;;;;16.40;54.65;102014.72;5058323;28;20170;-76
2021/06/13 05:18:48;;;;;;;10.77;5.97;;;;;;;16.38;54.62;102014.72;5057952;28;20185;-75
2021/06/13 05:21:13;;;;;;;8.57;5.07;;;;;;;16.10;55.21;102014.56;5057711;28;20189;-75
2021/06/13 05:23:39;;;;;;;11.50;6.30;;;;;;;16.13;55.53;102014.56;5058215;28;20169;-76
2021/06/13 05:26:04;;;;;;;11.37;6.50;;;;;;;16.45;54.37;102016.53;5057540;28;20264;-76
2021/06/13 05:28:30;;;;;;;8.47;5.10;;;;;;;17.88;50.77;102001.13;5057622;28;20488;-76
2021/06/13 05:30:55;;;;;;;10.13;5.63;;;;;;;17.34;50.75;102007.22;5058044;28;20284;-77
2021/06/13 05:33:21;;;;;;;11.20;7.60;;;;;;;16.63;52.67;102014.88;5057678;28;20181;-75
2021/06/13 05:35:48;;;;;;;8.53;5.70;;;;;;;16.19;53.92;102003.22;5057675;28;20607;-75
2021/06/13 05:38:13;;;;;;;11.07;5.70;;;;;;;15.90;54.91;102010.88;5057953;28;20460;-74
2021/06/13 05:40:39;;;;;;;8.50;6.13;;;;;;;16.29;54.07;102015.56;5057621;28;20416;-74
2021/06/13 05:43:06;;;;;;;10.97;5.70;;;;;;;16.70;52.97;102021.03;5057226;28;20173;-76
2021/06/13 05:45:32;;;;;;;8.17;5.93;;;;;;;16.73;52.94;102016.66;5057909;28;20786;-75
2021/06/13 05:47:58;;;;;;;7.73;6.20;;;;;;;16.55;52.14;102021.84;5057444;28;20399;-76
2021/06/13 05:50:24;;;;;;;9.50;5.90;;;;;;;16.69;51.13;102024.56;5057430;28;20327;-76
2021/06/13 05:52:49;;;;;;;10.83;5.50;;;;;;;16.84;50.50;102017.63;5057792;28;20747;-76
2021/06/13 05:55:16;;;;;;;8.20;5.77;;;;;;;16.99;50.09;102024.72;5057419;28;20173;-75
2021/06/13 05:57:41;;;;;;;8.03;5.70;;;;;;;16.81;50.17;102020.22;5057397;28;20252;-77
2021/06/13 06:00:30;;;;;;;11.03;6.90;;;;;;;16.76;50.01;102035.09;5056942;28;20414;-76
2021/06/13 06:02:56;;;;;;;7.47;5.53;;;;;;;16.75;50.44;102041.28;5057274;28;20287;-76
2021/06/13 06:05:22;;;;;;;11.30;5.80;;;;;;;16.66;50.70;102035.94;5057439;28;20403;-76
2021/06/13 06:07:49;;;;;;;12.77;5.97;;;;;;;16.45;50.83;102041.97;5057468;28;20177;-77
2021/06/13 06:10:15;;;;;;;10.03;5.93;;;;;;;16.73;50.28;102052.66;5056549;28;20446;-77
2021/06/13 06:12:42;;;;;;;8.77;5.33;;;;;;;17.08;49.33;102055.47;5059006;28;20441;-76
2021/06/13 06:15:10;;;;;;;9.93;5.50;;;;;;;17.49;48.13;102053.84;5059413;28;20173;-77
2021/06/13 06:17:35;;;;;;;9.90;5.90;;;;;;;17.83;47.66;102062.69;5058738;28;20420;-77
2021/06/13 06:20:00;;;;;;;10.30;5.17;;;;;;;17.48;47.92;102050.31;5059577;28;20383;-77
2021/06/13 06:22:26;;;;;;;11.00;5.00;;;;;;;17.41;47.86;102052.94;5056506;28;20430;-76
2021/06/13 06:24:51;;;;;;;11.40;6.10;;;;;;;18.03;46.79;102047.75;5057321;28;20225;-76
2021/06/13 06:27:17;;;;;;;10.93;5.50;;;;;;;21.40;39.17;102040.88;5061531;28;20176;-76
2021/06/13 06:29:42;;;;;;;7.83;5.80;;;;;;;21.03;38.82;102046.72;5060828;28;20608;-76
2021/06/13 06:32:07;;;;;;;8.47;5.23;;;;;;;20.49;40.13;102055.28;5060515;28;20491;-75
2021/06/13 06:34:33;;;;;;;11.40;5.43;;;;;;;21.44;39.05;102042.59;5061513;28;20227;-75
2021/06/13 06:36:58;;;;;;;9.00;4.60;;;;;;;24.65;33.13;102055.34;5061505;28;20212;-74
2021/06/13 06:39:23;;;;;;;10.80;5.10;;;;;;;23.41;34.80;102049.59;5063444;28;20178;-72
2021/06/13 06:41:49;;;;;;;8.50;4.90;;;;;;;24.50;32.78;102036.16;5061232;28;20177;-75
2021/06/13 06:44:15;;;;;;;6.17;4.70;;;;;;;21.17;38.74;102054.47;5060597;28;20165;-75
2021/06/13 06:46:40;;;;;;;7.30;4.80;;;;;;;19.97;41.71;102057.53;5060736;28;20169;-79
2021/06/13 06:49:07;;;;;;;9.87;5.67;;;;;;;20.65;40.68;102069.25;5061418;28;20473;-77
2021/06/13 06:51:33;;;;;;;8.53;5.07;;;;;;;19.30;44.43;102080.88;5059032;28;20212;-73
2021/06/13 06:53:59;;;;;;;7.93;4.80;;;;;;;18.87;45.33;102081.03;5060210;28;20420;-77
2021/06/13 06:56:25;;;;;;;13.13;7.00;;;;;;;18.34;46.46;102094.34;5060814;28;20486;-74
2021/06/13 06:58:51;;;;;;;8.90;5.50;;;;;;;18.65;45.43;102096.09;5060482;28;20451;-74
2021/06/13 07:01:16;;;;;;;11.70;6.07;;;;;;;18.78;45.11;102097.81;5059959;28;20493;-68
2021/06/13 07:03:41;;;;;;;12.47;6.17;;;;;;;18.45;46.07;102093.47;5060347;28;20684;-71
2021/06/13 07:06:07;;;;;;;10.30;5.67;;;;;;;18.63;46.36;102097.81;5059912;28;20213;-69
2021/06/13 07:08:32;;;;;;;9.70;5.50;;;;;;;18.35;46.92;102093.47;5059786;28;20235;-69
2021/06/13 07:10:57;;;;;;;12.60;5.33;;;;;;;18.68;45.53;102104.00;5060104;28;20212;-69
2021/06/13 07:13:23;;;;;;;9.17;4.77;;;;;;;18.73;45.53;102107.50;5059863;28;20169;-69
2021/06/13 07:15:48;;;;;;;11.90;5.30;;;;;;;19.14;45.24;102108.28;5059924;28;20550;-70
2021/06/13 07:18:13;;;;;;;12.67;5.70;;;;;;;19.34;44.90;102114.34;5060433;28;20173;-69
2021/06/13 07:20:39;;;;;;;7.13;5.00;;;;;;;19.96;43.88;102113.16;5059920;28;20272;-69
2021/06/13 07:23:04;;;;;;;8.70;5.17;;;;;;;20.36;42.60;102110.13;5059839;28;20537;-69
2021/06/13 07:25:29;;;;;;;9.90;5.27;;;;;;;19.13;46.19;102122.38;5059799;28;21224;-69
2021/06/13 07:27:55;;;;;;;10.77;5.17;;;;;;;19.40;44.14;102126.66;5059910;28;20174;-69
2021/06/13 07:30:20;;;;;;;8.70;5.80;;;;;;;18.59;46.10;102125.13;5059941;28;20567;-69
2021/06/13 07:32:48;;;;;;;10.77;5.70;;;;;;;18.39;47.12;102128.69;5059353;28;20228;-69
2021/06/13 07:35:14;;;;;;;7.70;5.20;;;;;;;18.34;47.45;102125.16;5059403;28;20457;-68
2021/06/13 07:37:40;;;;;;;11.73;6.53;;;;;;;18.74;46.65;102126.88;5059584;28;20425;-69
2021/06/13 07:40:06;;;;;;;8.97;5.40;;;;;;;18.75;46.75;102124.22;5059495;28;20559;-73
2021/06/13 07:42:32;;;;;;;8.10;6.00;;;;;;;19.12;45.34;102123.25;5058465;28;20818;-69
2021/06/13 07:44:57;;;;;;;10.00;5.67;;;;;;;18.73;45.63;102136.56;5060073;28;20423;-71
2021/06/13 07:47:23;;;;;;;11.43;5.50;;;;;;;19.11;44.04;102132.97;5059515;28;20188;-68
2021/06/13 07:49:48;;;;;;;9.97;5.17;;;;;;;19.68;42.87;102135.31;5059234;28;20259;-69
2021/06/13 07:52:17;;;;;;;10.70;5.60;;;;;;;20.03;42.26;102141.31;5059548;28;20452;-71
2021/06/13 07:54:42;;;;;;;7.60;5.67;;;;;;;20.62;41.91;102146.09;5059216;28;20178;-71
2021/06/13 07:57:08;;;;;;;14.90;6.13;;;;;;;19.55;43.90;102146.00;5059324;28;20659;-69
2021/06/13 07:59:35;;;;;;;7.30;5.10;;;;;;;19.14;45.50;102151.44;5058639;28;20412;-68
2021/06/13 08:02:01;;;;;;;15.40;6.30;;;;;;;20.10;43.28;102148.31;5058890;28;20181;-67
2021/06/13 08:04:33;;;;;;;11.03;8.47;;;;;;;22.15;38.34;102136.19;5058187;28;20691;-70
2021/06/13 08:06:59;;;;;;;7.07;5.23;;;;;;;23.98;33.93;102130.81;5058897;28;20181;-68
2021/06/13 08:09:24;;;;;;;9.17;6.07;;;;;;;24.64;33.92;102136.25;5059083;28;20810;-68
2021/06/13 08:11:50;;;;;;;5.73;4.93;;;;;;;23.61;34.71;102134.31;5059138;28;20548;-68
2021/06/13 08:14:15;;;;;;;6.60;5.40;;;;;;;24.35;33.82;102164.53;5058856;28;20564;-68
2021/06/13 08:16:40;;;;;;;5.67;4.97;;;;;;;24.09;34.31;102150.06;5058815;28;20223;-69
2021/06/13 08:19:06;;;;;;;10.00;4.83;;;;;;;24.66;33.70;102153.97;5059258;28;20204;-68
2021/06/13 08:21:33;;;;;;;8.20;6.20;;;;;;;23.56;35.54;102155.72;5058745;28;20256;-69
2021/06/13 08:23:58;;;;;;;6.63;5.90;;;;;;;22.72;37.13;102164.47;5057842;28;20185;-70
2021/06/13 08:26:24;;;;;;;10.00;5.77;;;;;;;21.26;40.18;102173.72;5058791;28;20404;-69
2021/06/13 08:28:50;;;;;;;10.30;5.83;;;;;;;20.98;40.81;102181.97;5058027;28;20488;-69
2021/06/13 08:31:15;;;;;;;11.13;5.70;;;;;;;19.91;42.94;102189.91;5057934;28;20206;-70
2021/06/13 08:33:40;;;;;;;8.03;4.97;;;;;;;19.13;45.04;102202.59;5059071;28;20189;-71
2021/06/13 08:36:06;;;;;;;10.60;6.43;;;;;;;19.26;45.36;102192.84;5058738;28;20554;-70
2021/06/13 08:38:32;;;;;;;9.70;6.27;;;;;;;19.08;46.03;102204.34;5058905;28;20169;-70
2021/06/13 08:40:57;;;;;;;12.93;6.00;;;;;;;19.30;45.78;102196.34;5059028;28;20223;-69
2021/06/13 08:43:22;;;;;;;12.20;6.40;;;;;;;20.32;43.81;102195.81;5058411;28;20205;-70
2021/06/13 08:45:49;;;;;;;10.67;5.90;;;;;;;20.85;42.27;102189.19;5058362;28;20244;-70
2021/06/13 08:48:14;;;;;;;10.00;5.90;;;;;;;19.97;44.66;102191.63;5057569;28;20157;-70
2021/06/13 08:50:40;;;;;;;9.30;6.40;;;;;;;19.59;44.84;102192.69;5058133;28;20509;-69
2021/06/13 08:53:05;;;;;;;6.43;5.60;;;;;;;18.92;46.49;102197.34;5057911;28;20169;-69
2021/06/13 08:55:32;;;;;;;14.27;6.57;;;;;;;19.33;46.03;102209.56;5058825;28;20191;-70
2021/06/13 08:57:58;;;;;;;8.20;6.40;;;;;;;18.51;47.60;102209.69;5058265;28;20444;-70
2021/06/13 09:00:27;;;;;;;10.10;7.10;;;;;;;18.79;47.57;102207.88;5057892;28;20486;-69
2021/06/13 09:02:52;;;;;;;13.17;6.47;;;;;;;18.82;47.98;102217.56;5058229;28;20390;-70
2021/06/13 09:05:22;;;;;;;12.73;7.30;;;;;;;18.75;47.66;102218.44;5058112;28;20419;-70
2021/06/13 09:08:00;;;;;;;13.10;7.30;;;;;;;19.72;45.10;102215.56;5058183;28;20165;-69
2021/06/13 09:10:29;;;;;;;10.47;6.77;;;;;;;19.57;44.80;102218.31;5058133;28;20518;-70
2021/06/13 09:13:08;;;;;;;9.93;6.00;;;;;;;19.52;45.47;102223.59;5057902;28;20880;-69
2021/06/13 09:15:35;;;;;;;14.90;6.30;;;;;;;19.10;46.43;102226.34;5057982;28;20495;-69
2021/06/13 09:18:00;;;;;;;8.80;5.80;;;;;;;18.55;47.13;102231.66;5057795;28;20814;-70
2021/06/13 09:20:27;;;;;;;10.20;5.77;;;;;;;19.79;44.21;102216.41;5058275;28;20549;-70
2021/06/13 09:23:05;;;;;;;9.80;5.97;;;;;;;20.28;43.36;102224.09;5057771;28;20170;-69
2021/06/13 09:25:30;;;;;;;8.03;5.87;;;;;;;19.41;45.02;102221.00;5057465;28;20470;-71
2021/06/13 09:28:17;;;;;;;11.40;6.10;;;;;;;19.44;44.07;102234.19;5057935;28;20408;-69
2021/06/13 09:30:45;;;;;;;8.13;6.20;;;;;;;19.36;43.07;102230.69;5057462;28;20200;-69
2021/06/13 09:33:13;;;;;;;11.20;7.30;;;;;;;19.88;42.62;102234.03;5057565;28;20379;-70
2021/06/13 09:35:40;;;;;;;8.87;5.97;;;;;;;19.61;43.03;102236.78;5057771;28;20458;-69
2021/06/13 09:38:16;;;;;;;9.67;5.97;;;;;;;19.85;42.43;102242.91;5058029;28;20404;-70
2021/06/13 09:40:51;;;;;;;11.93;6.00;;;;;;;19.49;42.73;102239.47;5057772;28;20418;-71
2021/06/13 09:43:26;;;;;;;9.90;6.17;;;;;;;20.12;41.54;102241.84;5056957;28;20417;-70
2021/06/13 09:45:54;;;;;;;8.80;5.60;;;;;;;19.65;41.93;102241.19;5057681;28;20416;-71
2021/06/13 09:48:20;;;;;;;8.80;5.93;;;;;;;21.18;38.73;102242.75;5056934;28;20436;-70
2021/06/13 09:50:50;;;;;;;8.33;6.30;;;;;;;22.74;35.92;102238.91;5057395;28;20433;-69
2021/06/13 09:53:27;;;;;;;8.00;5.80;;;;;;;22.25;36.36;102244.06;5057459;28;20507;-71
2021/06/13 09:56:04;;;;;;;9.03;7.43;;;;;;;20.68;38.52;102254.69;5056878;28;20416;-70
2021/06/13 09:58:31;;;;;;;10.97;8.70;;;;;;;20.64;39.62;102250.31;5057404;28;20405;-68
2021/06/13 10:01:09;;;;;;;7.53;5.50;;;;;;;20.59;39.40;102241.53;5059187;28;20416;-69
2021/06/13 10:03:38;;;;;;;10.20;6.17;;;;;;;21.78;38.19;102245.63;5061388;28;20423;-70
2021/06/13 10:06:08;;;;;;;6.80;4.97;;;;;;;22.95;34.86;102232.28;5061337;28;20422;-70
2021/06/13 10:08:35;;;;;;;7.93;5.73;;;;;;;22.74;35.44;102237.09;5060576;28;20416;-70
2021/06/13 10:11:02;;;;;;;9.60;5.83;;;;;;;22.21;36.12;102239.69;5061364;28;20513;-71
2021/06/13 10:13:41;;;;;;;8.37;5.70;;;;;;;21.08;38.89;102240.22;5060965;28;20478;-70
2021/06/13 10:16:07;;;;;;;10.07;6.53;;;;;;;22.48;36.45;102241.06;5061135;28;20420;-69
2021/06/13 10:18:33;;;;;;;10.13;6.03;;;;;;;21.67;36.68;102246.63;5061163;28;20579;-68
2021/06/13 10:21:13;;;;;;;8.00;5.50;;;;;;;21.60;37.51;102238.78;5061647;28;20512;-69
2021/06/13 10:23:40;;;;;;;7.77;6.10;;;;;;;21.78;37.06;102242.97;5060937;28;20169;-69
2021/06/13 10:26:07;;;;;;;6.80;5.27;;;;;;;21.64;37.05;102237.84;5060748;28;20455;-69
2021/06/13 10:28:32;;;;;;;8.70;6.23;;;;;;;22.69;34.97;102241.63;5060926;28;20839;-69
2021/06/13 10:30:58;;;;;;;8.67;5.33;;;;;;;24.83;32.54;102230.88;5060110;28;20460;-70
2021/06/13 10:33:24;;;;;;;7.83;5.80;;;;;;;25.33;31.34;102222.41;5059966;28;20566;-69
2021/06/13 10:35:49;;;;;;;9.40;5.80;;;;;;;24.68;31.69;102221.47;5060136;28;20178;-70
2021/06/13 10:38:15;;;;;;;7.90;5.30;;;;;;;25.52;30.14;102219.22;5060099;28;20473;-69
2021/06/13 10:40:40;;;;;;;9.10;5.40;;;;;;;24.65;33.14;102226.00;5060500;28;20177;-69
2021/06/13 10:43:06;;;;;;;8.83;5.03;;;;;;;23.38;33.47;102240.38;5060578;28;20162;-70
2021/06/13 10:45:32;;;;;;;7.00;5.47;;;;;;;25.09;31.08;102223.06;5059918;28;20227;-69
2021/06/13 10:48:07;;;;;;;7.60;5.70;;;;;;;24.06;32.54;102222.09;5060122;28;20197;-70
2021/06/13 10:50:34;;;;;;;6.43;4.83;;;;;;;23.85;33.90;102226.06;5060355;28;20455;-69
2021/06/13 10:53:02;;;;;;;7.00;5.30;;;;;;;22.39;35.13;102241.22;5060331;28;20415;-70
2021/06/13 10:55:45;;;;;;;10.40;5.90;;;;;;;23.71;32.82;102234.38;5059846;28;20813;-70
2021/06/13 10:58:10;;;;;;;8.50;5.20;;;;;;;23.26;33.07;102235.31;5060305;28;20404;-70
2021/06/13 11:00:35;;;;;;;8.67;5.70;;;;;;;23.88;32.53;102236.66;5059203;28;20423;-70
2021/06/13 11:03:01;;;;;;;7.30;5.70;;;;;;;22.57;34.75;102244.47;5059773;28;20227;-70
2021/06/13 11:05:43;;;;;;;8.50;5.70;;;;;;;23.53;33.02;102228.53;5060881;28;20177;-71
2021/06/13 11:08:08;;;;;;;9.43;6.13;;;;;;;24.26;31.83;102245.59;5060276;28;20177;-70
2021/06/13 11:10:34;;;;;;;7.23;5.27;;;;;;;23.88;32.72;102245.56;5060024;28;20459;-69
2021/06/13 11:13:04;;;;;;;7.27;6.40;;;;;;;23.30;33.00;102247.63;5059823;28;20261;-71
2021/06/13 11:15:31;;;;;;;14.47;7.20;;;;;;;22.92;33.72;102250.97;5060133;28;20276;-69
2021/06/13 11:18:07;;;;;;;7.97;6.00;;;;;;;23.41;33.22;102250.09;5060572;28;20696;-70
2021/06/13 11:23:27;;;;;;;6.60;5.33;;;;;;;23.65;32.93;102239.81;5060023;28;20403;-68
2021/06/13 11:25:56;;;;;;;11.03;5.60;;;;;;;24.38;31.92;102247.97;5055797;28;20467;-69